sensor_id;sensor_type;location;lat;lon;timestamp;P1;durP1;ratioP1;P2;durP2;ratioP2
6985;SDS011;3533;51.246;6.850;2023-02-15T00:01:08;2.93;;;2.73;;
6985;SDS011;3533;51.246;6.850;2023-02-15T00:03:35;3.30;;;3.10;;
6985;SDS011;3533;51.246;6.850;2023-02-15T00:06:01;3.00;;;2.80;;
6985;SDS011;3533;51.246;6.850;2023-02-15T00:08:27;3.33;;;3.13;;
6985;SDS011;3533;51.246;6.850;2023-02-15T00:10:52;2.67;;;2.47;;
6985;SDS011;3533;51.246;6.850;2023-02-15T00:13:18;2.53;;;2.43;;
6985;SDS011;3533;51.246;6.850;2023-02-15T00:15:44;3.03;;;2.83;;
6985;SDS011;3533;51.246;6.850;2023-02-15T00:18:09;3.20;;;3.00;;
6985;SDS011;3533;51.246;6.850;2023-02-15T00:20:35;2.50;;;2.40;;
6985;SDS011;3533;51.246;6.850;2023-02-15T00:23:00;2.90;;;2.70;;
6985;SDS011;3533;51.246;6.850;2023-02-15T00:25:26;2.80;;;2.60;;
6985;SDS011;3533;51.246;6.850;2023-02-15T00:27:51;2.90;;;2.70;;
6985;SDS011;3533;51.246;6.850;2023-02-15T00:30:17;3.33;;;3.13;;
6985;SDS011;3533;51.246;6.850;2023-02-15T00:32:42;3.50;;;3.20;;
6985;SDS011;3533;51.246;6.850;2023-02-15T00:35:08;3.40;;;3.20;;
6985;SDS011;3533;51.246;6.850;2023-02-15T00:37:34;2.87;;;2.70;;
6985;SDS011;3533;51.246;6.850;2023-02-15T00:39:59;3.03;;;2.83;;
6985;SDS011;3533;51.246;6.850;2023-02-15T00:42:26;3.50;;;3.30;;
6985;SDS011;3533;51.246;6.850;2023-02-15T00:44:51;3.30;;;3.00;;
6985;SDS011;3533;51.246;6.850;2023-02-15T00:47:17;3.10;;;2.90;;
6985;SDS011;3533;51.246;6.850;2023-02-15T00:49:42;3.10;;;2.90;;
6985;SDS011;3533;51.246;6.850;2023-02-15T00:52:08;3.20;;;3.00;;
6985;SDS011;3533;51.246;6.850;2023-02-15T00:54:33;2.90;;;2.70;;
6985;SDS011;3533;51.246;6.850;2023-02-15T00:56:59;2.93;;;2.73;;
6985;SDS011;3533;51.246;6.850;2023-02-15T00:59:25;3.57;;;3.27;;
6985;SDS011;3533;51.246;6.850;2023-02-15T01:01:51;3.13;;;2.93;;
6985;SDS011;3533;51.246;6.850;2023-02-15T01:04:16;3.00;;;2.80;;
6985;SDS011;3533;51.246;6.850;2023-02-15T01:06:42;2.53;;;2.43;;
6985;SDS011;3533;51.246;6.850;2023-02-15T01:09:08;3.17;;;2.97;;
6985;SDS011;3533;51.246;6.850;2023-02-15T01:11:34;3.10;;;2.90;;
6985;SDS011;3533;51.246;6.850;2023-02-15T01:13:59;3.40;;;3.20;;
6985;SDS011;3533;51.246;6.850;2023-02-15T01:16:26;2.97;;;2.80;;
6985;SDS011;3533;51.246;6.850;2023-02-15T01:18:53;2.60;;;2.50;;
6985;SDS011;3533;51.246;6.850;2023-02-15T01:21:20;3.00;;;2.80;;
6985;SDS011;3533;51.246;6.850;2023-02-15T01:23:47;3.17;;;2.97;;
6985;SDS011;3533;51.246;6.850;2023-02-15T01:26:14;3.17;;;2.97;;
6985;SDS011;3533;51.246;6.850;2023-02-15T01:28:40;3.43;;;3.23;;
6985;SDS011;3533;51.246;6.850;2023-02-15T01:31:09;3.50;;;3.30;;
6985;SDS011;3533;51.246;6.850;2023-02-15T01:33:37;2.90;;;2.70;;
6985;SDS011;3533;51.246;6.850;2023-02-15T01:36:03;3.33;;;3.13;;
6985;SDS011;3533;51.246;6.850;2023-02-15T01:38:29;3.20;;;3.00;;
6985;SDS011;3533;51.246;6.850;2023-02-15T01:40:55;3.27;;;3.07;;
6985;SDS011;3533;51.246;6.850;2023-02-15T01:43:41;3.60;;;3.40;;
6985;SDS011;3533;51.246;6.850;2023-02-15T01:46:08;3.03;;;2.83;;
6985;SDS011;3533;51.246;6.850;2023-02-15T01:48:36;3.40;;;3.20;;
6985;SDS011;3533;51.246;6.850;2023-02-15T01:51:14;2.60;;;2.50;;
6985;SDS011;3533;51.246;6.850;2023-02-15T01:53:45;3.60;;;3.40;;
6985;SDS011;3533;51.246;6.850;2023-02-15T01:56:19;3.43;;;3.23;;
6985;SDS011;3533;51.246;6.850;2023-02-15T01:58:48;2.47;;;2.37;;
6985;SDS011;3533;51.246;6.850;2023-02-15T02:01:14;3.40;;;3.20;;
6985;SDS011;3533;51.246;6.850;2023-02-15T02:03:47;2.67;;;2.57;;
6985;SDS011;3533;51.246;6.850;2023-02-15T02:06:15;3.20;;;3.00;;
6985;SDS011;3533;51.246;6.850;2023-02-15T02:08:41;3.30;;;3.10;;
6985;SDS011;3533;51.246;6.850;2023-02-15T02:11:11;2.97;;;2.77;;
6985;SDS011;3533;51.246;6.850;2023-02-15T02:13:41;3.30;;;2.97;;
6985;SDS011;3533;51.246;6.850;2023-02-15T02:37:28;3.30;;;3.10;;
6985;SDS011;3533;51.246;6.850;2023-02-15T02:40:03;4.13;;;3.83;;
6985;SDS011;3533;51.246;6.850;2023-02-15T02:42:43;3.50;;;3.30;;
6985;SDS011;3533;51.246;6.850;2023-02-15T02:47:52;3.60;;;3.30;;
6985;SDS011;3533;51.246;6.850;2023-02-15T02:50:25;3.20;;;3.00;;
6985;SDS011;3533;51.246;6.850;2023-02-15T02:52:53;3.40;;;3.20;;
6985;SDS011;3533;51.246;6.850;2023-02-15T02:58:18;3.40;;;3.20;;
6985;SDS011;3533;51.246;6.850;2023-02-15T03:00:57;3.00;;;2.80;;
6985;SDS011;3533;51.246;6.850;2023-02-15T03:06:11;3.17;;;2.97;;
6985;SDS011;3533;51.246;6.850;2023-02-15T03:08:44;3.00;;;2.80;;
6985;SDS011;3533;51.246;6.850;2023-02-15T03:11:13;2.60;;;2.50;;
6985;SDS011;3533;51.246;6.850;2023-02-15T03:13:39;3.77;;;3.57;;
6985;SDS011;3533;51.246;6.850;2023-02-15T03:16:05;3.20;;;3.00;;
6985;SDS011;3533;51.246;6.850;2023-02-15T03:19:01;3.40;;;3.20;;
6985;SDS011;3533;51.246;6.850;2023-02-15T03:21:42;3.50;;;3.30;;
6985;SDS011;3533;51.246;6.850;2023-02-15T03:24:14;2.90;;;2.70;;
6985;SDS011;3533;51.246;6.850;2023-02-15T03:26:45;3.50;;;3.20;;
6985;SDS011;3533;51.246;6.850;2023-02-15T03:29:14;3.27;;;3.07;;
6985;SDS011;3533;51.246;6.850;2023-02-15T03:31:42;3.50;;;3.30;;
6985;SDS011;3533;51.246;6.850;2023-02-15T03:34:12;3.80;;;3.60;;
6985;SDS011;3533;51.246;6.850;2023-02-15T03:36:46;3.77;;;3.43;;
6985;SDS011;3533;51.246;6.850;2023-02-15T03:39:19;3.57;;;3.37;;
6985;SDS011;3533;51.246;6.850;2023-02-15T03:44:42;3.50;;;3.30;;
6985;SDS011;3533;51.246;6.850;2023-02-15T03:47:39;3.93;;;3.63;;
6985;SDS011;3533;51.246;6.850;2023-02-15T03:50:16;3.47;;;3.27;;
6985;SDS011;3533;51.246;6.850;2023-02-15T03:53:05;3.50;;;3.30;;
6985;SDS011;3533;51.246;6.850;2023-02-15T03:55:34;3.53;;;3.33;;
6985;SDS011;3533;51.246;6.850;2023-02-15T03:58:00;3.83;;;3.63;;
6985;SDS011;3533;51.246;6.850;2023-02-15T04:00:53;3.30;;;3.10;;
6985;SDS011;3533;51.246;6.850;2023-02-15T04:04:15;3.10;;;2.90;;
6985;SDS011;3533;51.246;6.850;2023-02-15T04:06:36;3.23;;;3.03;;
6985;SDS011;3533;51.246;6.850;2023-02-15T04:09:02;3.70;;;3.50;;
6985;SDS011;3533;51.246;6.850;2023-02-15T04:11:46;3.60;;;3.40;;
6985;SDS011;3533;51.246;6.850;2023-02-15T04:14:11;3.77;;;3.57;;
6985;SDS011;3533;51.246;6.850;2023-02-15T04:16:56;3.67;;;3.47;;
6985;SDS011;3533;51.246;6.850;2023-02-15T04:19:21;2.87;;;2.67;;
6985;SDS011;3533;51.246;6.850;2023-02-15T04:22:05;3.73;;;3.53;;
6985;SDS011;3533;51.246;6.850;2023-02-15T04:24:49;3.37;;;3.17;;
6985;SDS011;3533;51.246;6.850;2023-02-15T04:27:34;4.07;;;3.87;;
6985;SDS011;3533;51.246;6.850;2023-02-15T04:30:00;4.03;;;3.83;;
6985;SDS011;3533;51.246;6.850;2023-02-15T04:32:26;3.40;;;3.20;;
6985;SDS011;3533;51.246;6.850;2023-02-15T04:34:52;3.67;;;3.47;;
6985;SDS011;3533;51.246;6.850;2023-02-15T04:37:17;3.70;;;3.50;;
6985;SDS011;3533;51.246;6.850;2023-02-15T04:39:43;3.50;;;3.30;;
6985;SDS011;3533;51.246;6.850;2023-02-15T04:42:09;3.50;;;3.30;;
6985;SDS011;3533;51.246;6.850;2023-02-15T04:44:34;3.90;;;3.70;;
6985;SDS011;3533;51.246;6.850;2023-02-15T04:47:00;4.00;;;3.80;;
6985;SDS011;3533;51.246;6.850;2023-02-15T04:49:25;4.00;;;3.73;;
6985;SDS011;3533;51.246;6.850;2023-02-15T04:51:51;4.00;;;3.80;;
6985;SDS011;3533;51.246;6.850;2023-02-15T04:54:16;3.87;;;3.67;;
6985;SDS011;3533;51.246;6.850;2023-02-15T04:56:42;3.43;;;3.23;;
6985;SDS011;3533;51.246;6.850;2023-02-15T04:59:11;3.53;;;3.30;;
6985;SDS011;3533;51.246;6.850;2023-02-15T05:01:37;3.60;;;3.40;;
6985;SDS011;3533;51.246;6.850;2023-02-15T05:04:02;3.80;;;3.60;;
6985;SDS011;3533;51.246;6.850;2023-02-15T05:06:28;3.60;;;3.40;;
6985;SDS011;3533;51.246;6.850;2023-02-15T05:08:54;4.13;;;3.93;;
6985;SDS011;3533;51.246;6.850;2023-02-15T05:11:19;4.20;;;4.00;;
6985;SDS011;3533;51.246;6.850;2023-02-15T05:13:45;3.20;;;3.00;;
6985;SDS011;3533;51.246;6.850;2023-02-15T05:16:11;3.90;;;3.70;;
6985;SDS011;3533;51.246;6.850;2023-02-15T05:18:36;3.93;;;3.63;;
6985;SDS011;3533;51.246;6.850;2023-02-15T05:21:02;3.70;;;3.40;;
6985;SDS011;3533;51.246;6.850;2023-02-15T05:23:28;3.90;;;3.70;;
6985;SDS011;3533;51.246;6.850;2023-02-15T05:25:53;4.40;;;4.10;;
6985;SDS011;3533;51.246;6.850;2023-02-15T05:28:37;3.80;;;3.60;;
6985;SDS011;3533;51.246;6.850;2023-02-15T05:31:13;3.70;;;3.50;;
6985;SDS011;3533;51.246;6.850;2023-02-15T05:33:40;3.70;;;3.50;;
6985;SDS011;3533;51.246;6.850;2023-02-15T05:36:06;3.60;;;3.40;;
6985;SDS011;3533;51.246;6.850;2023-02-15T05:38:32;3.87;;;3.67;;
6985;SDS011;3533;51.246;6.850;2023-02-15T05:40:58;3.33;;;3.13;;
6985;SDS011;3533;51.246;6.850;2023-02-15T05:43:24;3.23;;;3.03;;
6985;SDS011;3533;51.246;6.850;2023-02-15T05:45:51;3.20;;;3.00;;
6985;SDS011;3533;51.246;6.850;2023-02-15T05:48:19;3.80;;;3.60;;
6985;SDS011;3533;51.246;6.850;2023-02-15T05:50:45;4.00;;;3.37;;
6985;SDS011;3533;51.246;6.850;2023-02-15T05:53:11;3.80;;;3.60;;
6985;SDS011;3533;51.246;6.850;2023-02-15T05:55:38;3.63;;;3.43;;
6985;SDS011;3533;51.246;6.850;2023-02-15T05:58:04;3.80;;;3.50;;
6985;SDS011;3533;51.246;6.850;2023-02-15T06:00:30;3.80;;;3.60;;
6985;SDS011;3533;51.246;6.850;2023-02-15T06:02:56;4.07;;;3.87;;
6985;SDS011;3533;51.246;6.850;2023-02-15T06:05:21;3.57;;;3.37;;
6985;SDS011;3533;51.246;6.850;2023-02-15T06:07:47;4.00;;;3.77;;
6985;SDS011;3533;51.246;6.850;2023-02-15T06:10:13;3.70;;;3.50;;
6985;SDS011;3533;51.246;6.850;2023-02-15T06:12:39;3.63;;;3.43;;
6985;SDS011;3533;51.246;6.850;2023-02-15T06:15:04;3.83;;;3.63;;
6985;SDS011;3533;51.246;6.850;2023-02-15T06:17:30;3.57;;;3.37;;
6985;SDS011;3533;51.246;6.850;2023-02-15T06:19:56;3.90;;;3.60;;
6985;SDS011;3533;51.246;6.850;2023-02-15T06:22:22;3.90;;;3.70;;
6985;SDS011;3533;51.246;6.850;2023-02-15T06:24:47;3.63;;;3.43;;
6985;SDS011;3533;51.246;6.850;2023-02-15T06:27:13;3.83;;;3.63;;
6985;SDS011;3533;51.246;6.850;2023-02-15T06:29:39;9.70;;;3.77;;
6985;SDS011;3533;51.246;6.850;2023-02-15T06:32:04;3.60;;;3.33;;
6985;SDS011;3533;51.246;6.850;2023-02-15T06:34:30;6.53;;;5.90;;
6985;SDS011;3533;51.246;6.850;2023-02-15T06:36:56;3.83;;;3.60;;
6985;SDS011;3533;51.246;6.850;2023-02-15T06:39:22;3.90;;;3.70;;
6985;SDS011;3533;51.246;6.850;2023-02-15T06:41:48;4.10;;;3.80;;
6985;SDS011;3533;51.246;6.850;2023-02-15T06:44:13;3.50;;;3.20;;
6985;SDS011;3533;51.246;6.850;2023-02-15T06:46:39;3.40;;;3.20;;
6985;SDS011;3533;51.246;6.850;2023-02-15T06:49:04;4.07;;;3.80;;
6985;SDS011;3533;51.246;6.850;2023-02-15T06:51:30;3.97;;;3.77;;
6985;SDS011;3533;51.246;6.850;2023-02-15T06:53:55;4.73;;;4.37;;
6985;SDS011;3533;51.246;6.850;2023-02-15T06:56:21;3.63;;;3.43;;
6985;SDS011;3533;51.246;6.850;2023-02-15T06:58:47;3.73;;;3.43;;
6985;SDS011;3533;51.246;6.850;2023-02-15T07:01:14;6.73;;;3.90;;
6985;SDS011;3533;51.246;6.850;2023-02-15T07:03:40;4.40;;;4.10;;
6985;SDS011;3533;51.246;6.850;2023-02-15T07:06:06;4.03;;;3.73;;
6985;SDS011;3533;51.246;6.850;2023-02-15T07:08:33;3.93;;;3.73;;
6985;SDS011;3533;51.246;6.850;2023-02-15T07:11:00;3.87;;;3.57;;
6985;SDS011;3533;51.246;6.850;2023-02-15T07:13:45;3.83;;;3.53;;
6985;SDS011;3533;51.246;6.850;2023-02-15T07:16:11;3.47;;;3.27;;
6985;SDS011;3533;51.246;6.850;2023-02-15T07:18:37;3.17;;;2.97;;
6985;SDS011;3533;51.246;6.850;2023-02-15T07:21:03;3.83;;;3.53;;
6985;SDS011;3533;51.246;6.850;2023-02-15T07:23:29;5.07;;;3.60;;
6985;SDS011;3533;51.246;6.850;2023-02-15T07:25:58;3.67;;;3.47;;
6985;SDS011;3533;51.246;6.850;2023-02-15T07:28:24;4.00;;;3.70;;
6985;SDS011;3533;51.246;6.850;2023-02-15T07:30:50;3.70;;;3.50;;
6985;SDS011;3533;51.246;6.850;2023-02-15T07:33:15;4.67;;;3.70;;
6985;SDS011;3533;51.246;6.850;2023-02-15T07:35:59;3.63;;;3.33;;
6985;SDS011;3533;51.246;6.850;2023-02-15T07:38:29;3.80;;;3.60;;
6985;SDS011;3533;51.246;6.850;2023-02-15T07:40:57;3.73;;;3.43;;
6985;SDS011;3533;51.246;6.850;2023-02-15T07:43:24;3.77;;;3.47;;
6985;SDS011;3533;51.246;6.850;2023-02-15T07:45:49;3.43;;;3.13;;
6985;SDS011;3533;51.246;6.850;2023-02-15T07:48:15;3.57;;;3.37;;
6985;SDS011;3533;51.246;6.850;2023-02-15T07:50:40;4.03;;;3.73;;
6985;SDS011;3533;51.246;6.850;2023-02-15T07:53:06;3.27;;;3.07;;
6985;SDS011;3533;51.246;6.850;2023-02-15T07:55:32;3.90;;;3.63;;
6985;SDS011;3533;51.246;6.850;2023-02-15T07:57:57;3.30;;;3.00;;
6985;SDS011;3533;51.246;6.850;2023-02-15T08:00:23;3.20;;;3.00;;
6985;SDS011;3533;51.246;6.850;2023-02-15T08:02:53;3.03;;;2.83;;
6985;SDS011;3533;51.246;6.850;2023-02-15T08:05:39;3.67;;;3.47;;
6985;SDS011;3533;51.246;6.850;2023-02-15T08:08:05;4.10;;;3.90;;
6985;SDS011;3533;51.246;6.850;2023-02-15T08:10:32;3.23;;;2.93;;
6985;SDS011;3533;51.246;6.850;2023-02-15T08:13:15;4.00;;;3.43;;
6985;SDS011;3533;51.246;6.850;2023-02-15T08:15:47;3.80;;;3.50;;
6985;SDS011;3533;51.246;6.850;2023-02-15T08:18:16;3.40;;;3.20;;
6985;SDS011;3533;51.246;6.850;2023-02-15T08:20:41;3.90;;;3.70;;
6985;SDS011;3533;51.246;6.850;2023-02-15T08:23:07;3.37;;;3.07;;
6985;SDS011;3533;51.246;6.850;2023-02-15T08:25:33;3.33;;;3.13;;
6985;SDS011;3533;51.246;6.850;2023-02-15T08:27:58;2.87;;;2.67;;
6985;SDS011;3533;51.246;6.850;2023-02-15T08:30:24;3.30;;;3.10;;
6985;SDS011;3533;51.246;6.850;2023-02-15T08:32:49;3.20;;;3.00;;
6985;SDS011;3533;51.246;6.850;2023-02-15T08:35:15;3.63;;;3.33;;
6985;SDS011;3533;51.246;6.850;2023-02-15T08:37:40;3.03;;;2.83;;
6985;SDS011;3533;51.246;6.850;2023-02-15T08:40:06;3.57;;;3.27;;
6985;SDS011;3533;51.246;6.850;2023-02-15T08:42:32;3.10;;;2.90;;
6985;SDS011;3533;51.246;6.850;2023-02-15T08:44:58;3.33;;;3.13;;
6985;SDS011;3533;51.246;6.850;2023-02-15T08:47:25;3.60;;;3.40;;
6985;SDS011;3533;51.246;6.850;2023-02-15T08:49:50;3.00;;;2.80;;
6985;SDS011;3533;51.246;6.850;2023-02-15T08:52:16;3.53;;;3.00;;
6985;SDS011;3533;51.246;6.850;2023-02-15T08:54:42;3.27;;;3.07;;
6985;SDS011;3533;51.246;6.850;2023-02-15T08:57:07;3.30;;;3.00;;
6985;SDS011;3533;51.246;6.850;2023-02-15T08:59:33;2.87;;;2.67;;
6985;SDS011;3533;51.246;6.850;2023-02-15T09:01:58;3.27;;;3.07;;
6985;SDS011;3533;51.246;6.850;2023-02-15T09:04:25;3.40;;;3.10;;
6985;SDS011;3533;51.246;6.850;2023-02-15T09:06:51;3.03;;;2.83;;
6985;SDS011;3533;51.246;6.850;2023-02-15T09:09:17;3.10;;;2.90;;
6985;SDS011;3533;51.246;6.850;2023-02-15T09:11:45;3.17;;;2.87;;
6985;SDS011;3533;51.246;6.850;2023-02-15T09:14:18;3.27;;;3.07;;
6985;SDS011;3533;51.246;6.850;2023-02-15T09:16:46;2.70;;;2.57;;
6985;SDS011;3533;51.246;6.850;2023-02-15T09:19:14;3.20;;;3.00;;
6985;SDS011;3533;51.246;6.850;2023-02-15T09:21:40;2.73;;;2.63;;
6985;SDS011;3533;51.246;6.850;2023-02-15T09:24:08;3.00;;;2.70;;
6985;SDS011;3533;51.246;6.850;2023-02-15T09:26:37;3.00;;;2.73;;
6985;SDS011;3533;51.246;6.850;2023-02-15T09:29:05;3.33;;;3.13;;
6985;SDS011;3533;51.246;6.850;2023-02-15T09:31:41;2.80;;;2.60;;
6985;SDS011;3533;51.246;6.850;2023-02-15T09:34:09;2.90;;;2.70;;
6985;SDS011;3533;51.246;6.850;2023-02-15T09:36:37;2.60;;;2.40;;
6985;SDS011;3533;51.246;6.850;2023-02-15T09:39:14;2.87;;;2.73;;
6985;SDS011;3533;51.246;6.850;2023-02-15T09:44:17;3.17;;;2.60;;
6985;SDS011;3533;51.246;6.850;2023-02-15T09:47:09;3.20;;;3.00;;
6985;SDS011;3533;51.246;6.850;2023-02-15T10:01:20;2.77;;;2.57;;
6985;SDS011;3533;51.246;6.850;2023-02-15T10:04:08;2.50;;;2.40;;
6985;SDS011;3533;51.246;6.850;2023-02-15T10:06:42;2.90;;;2.70;;
6985;SDS011;3533;51.246;6.850;2023-02-15T10:22:46;2.53;;;2.43;;
6985;SDS011;3533;51.246;6.850;2023-02-15T10:27:55;3.10;;;2.90;;
6985;SDS011;3533;51.246;6.850;2023-02-15T10:30:45;3.70;;;3.27;;
6985;SDS011;3533;51.246;6.850;2023-02-15T10:33:16;2.67;;;2.50;;
6985;SDS011;3533;51.246;6.850;2023-02-15T10:41:17;2.67;;;2.47;;
6985;SDS011;3533;51.246;6.850;2023-02-15T10:49:35;2.30;;;2.20;;
6985;SDS011;3533;51.246;6.850;2023-02-15T10:52:25;2.57;;;2.47;;
6985;SDS011;3533;51.246;6.850;2023-02-15T10:55:07;3.30;;;3.10;;
6985;SDS011;3533;51.246;6.850;2023-02-15T10:57:58;2.23;;;2.13;;
6985;SDS011;3533;51.246;6.850;2023-02-15T11:00:27;2.53;;;2.37;;
6985;SDS011;3533;51.246;6.850;2023-02-15T11:03:06;2.60;;;2.50;;
6985;SDS011;3533;51.246;6.850;2023-02-15T11:05:46;2.30;;;2.20;;
6985;SDS011;3533;51.246;6.850;2023-02-15T11:08:21;2.63;;;2.53;;
6985;SDS011;3533;51.246;6.850;2023-02-15T11:10:53;2.50;;;2.30;;
6985;SDS011;3533;51.246;6.850;2023-02-15T11:13:23;2.73;;;2.53;;
6985;SDS011;3533;51.246;6.850;2023-02-15T11:15:54;3.87;;;2.87;;
6985;SDS011;3533;51.246;6.850;2023-02-15T11:18:33;2.50;;;2.40;;
6985;SDS011;3533;51.246;6.850;2023-02-15T11:23:41;2.50;;;2.40;;
6985;SDS011;3533;51.246;6.850;2023-02-15T11:26:17;2.67;;;2.47;;
6985;SDS011;3533;51.246;6.850;2023-02-15T11:31:41;2.50;;;2.40;;
6985;SDS011;3533;51.246;6.850;2023-02-15T11:34:12;2.13;;;2.03;;
6985;SDS011;3533;51.246;6.850;2023-02-15T11:36:44;2.40;;;2.30;;
6985;SDS011;3533;51.246;6.850;2023-02-15T11:39:12;2.50;;;2.40;;
6985;SDS011;3533;51.246;6.850;2023-02-15T11:41:44;3.20;;;3.00;;
6985;SDS011;3533;51.246;6.850;2023-02-15T11:44:27;2.83;;;2.73;;
6985;SDS011;3533;51.246;6.850;2023-02-15T11:47:07;2.80;;;2.50;;
6985;SDS011;3533;51.246;6.850;2023-02-15T11:49:36;2.60;;;2.50;;
6985;SDS011;3533;51.246;6.850;2023-02-15T11:52:04;2.87;;;2.67;;
6985;SDS011;3533;51.246;6.850;2023-02-15T11:54:32;2.80;;;2.60;;
6985;SDS011;3533;51.246;6.850;2023-02-15T11:57:46;2.77;;;2.57;;
6985;SDS011;3533;51.246;6.850;2023-02-15T11:59:50;2.67;;;2.47;;
6985;SDS011;3533;51.246;6.850;2023-02-15T12:02:44;2.50;;;2.40;;
6985;SDS011;3533;51.246;6.850;2023-02-15T12:05:16;2.90;;;2.70;;
6985;SDS011;3533;51.246;6.850;2023-02-15T12:07:45;2.50;;;2.40;;
6985;SDS011;3533;51.246;6.850;2023-02-15T12:10:19;2.70;;;2.60;;
6985;SDS011;3533;51.246;6.850;2023-02-15T12:15:42;2.83;;;2.63;;
6985;SDS011;3533;51.246;6.850;2023-02-15T12:21:12;2.50;;;2.40;;
6985;SDS011;3533;51.246;6.850;2023-02-15T12:23:48;2.67;;;2.57;;
6985;SDS011;3533;51.246;6.850;2023-02-15T12:26:27;2.60;;;2.50;;
6985;SDS011;3533;51.246;6.850;2023-02-15T12:28:59;2.20;;;2.10;;
6985;SDS011;3533;51.246;6.850;2023-02-15T12:31:33;3.07;;;2.87;;
6985;SDS011;3533;51.246;6.850;2023-02-15T12:34:08;2.77;;;2.57;;
6985;SDS011;3533;51.246;6.850;2023-02-15T12:36:53;2.60;;;2.50;;
6985;SDS011;3533;51.246;6.850;2023-02-15T12:39:26;2.87;;;2.73;;
6985;SDS011;3533;51.246;6.850;2023-02-15T12:44:20;2.30;;;2.20;;
6985;SDS011;3533;51.246;6.850;2023-02-15T12:49:23;2.27;;;2.17;;
6985;SDS011;3533;51.246;6.850;2023-02-15T12:51:59;2.67;;;2.47;;
6985;SDS011;3533;51.246;6.850;2023-02-15T12:54:31;2.47;;;2.37;;
6985;SDS011;3533;51.246;6.850;2023-02-15T12:59:54;2.00;;;1.90;;
6985;SDS011;3533;51.246;6.850;2023-02-15T13:04:53;2.10;;;2.00;;
6985;SDS011;3533;51.246;6.850;2023-02-15T13:07:20;2.90;;;2.70;;
6985;SDS011;3533;51.246;6.850;2023-02-15T13:09:46;2.37;;;2.17;;
6985;SDS011;3533;51.246;6.850;2023-02-15T13:12:23;2.47;;;2.37;;
6985;SDS011;3533;51.246;6.850;2023-02-15T13:14:54;2.20;;;2.10;;
6985;SDS011;3533;51.246;6.850;2023-02-15T13:17:23;2.60;;;2.50;;
6985;SDS011;3533;51.246;6.850;2023-02-15T13:19:54;2.77;;;2.60;;
6985;SDS011;3533;51.246;6.850;2023-02-15T13:22:38;2.40;;;2.30;;
6985;SDS011;3533;51.246;6.850;2023-02-15T13:25:26;1.90;;;1.80;;
6985;SDS011;3533;51.246;6.850;2023-02-15T13:28:00;2.50;;;2.40;;
6985;SDS011;3533;51.246;6.850;2023-02-15T13:30:28;2.67;;;2.47;;
6985;SDS011;3533;51.246;6.850;2023-02-15T13:33:08;2.50;;;2.40;;
6985;SDS011;3533;51.246;6.850;2023-02-15T13:36:05;2.37;;;2.13;;
6985;SDS011;3533;51.246;6.850;2023-02-15T13:41:33;2.97;;;2.77;;
6985;SDS011;3533;51.246;6.850;2023-02-15T13:49:47;2.40;;;2.30;;
6985;SDS011;3533;51.246;6.850;2023-02-15T13:52:25;2.03;;;1.93;;
6985;SDS011;3533;51.246;6.850;2023-02-15T13:54:57;2.20;;;2.10;;
6985;SDS011;3533;51.246;6.850;2023-02-15T14:00:27;2.13;;;2.03;;
6985;SDS011;3533;51.246;6.850;2023-02-15T14:06:05;2.10;;;2.00;;
6985;SDS011;3533;51.246;6.850;2023-02-15T14:12:34;2.70;;;2.27;;
6985;SDS011;3533;51.246;6.850;2023-02-15T14:15:02;2.87;;;2.67;;
6985;SDS011;3533;51.246;6.850;2023-02-15T14:17:59;2.07;;;1.97;;
6985;SDS011;3533;51.246;6.850;2023-02-15T14:20:45;2.13;;;2.03;;
6985;SDS011;3533;51.246;6.850;2023-02-15T14:35:17;2.60;;;2.40;;
6985;SDS011;3533;51.246;6.850;2023-02-15T14:40:44;2.60;;;2.50;;
6985;SDS011;3533;51.246;6.850;2023-02-15T14:46:25;2.27;;;2.17;;
6985;SDS011;3533;51.246;6.850;2023-02-15T14:49:06;2.37;;;2.27;;
6985;SDS011;3533;51.246;6.850;2023-02-15T14:59:26;1.83;;;1.73;;
6985;SDS011;3533;51.246;6.850;2023-02-15T15:02:00;2.33;;;2.13;;
6985;SDS011;3533;51.246;6.850;2023-02-15T15:04:32;2.20;;;2.10;;
6985;SDS011;3533;51.246;6.850;2023-02-15T15:07:17;2.17;;;2.07;;
6985;SDS011;3533;51.246;6.850;2023-02-15T15:09:44;2.20;;;2.10;;
6985;SDS011;3533;51.246;6.850;2023-02-15T15:14:52;2.37;;;2.27;;
6985;SDS011;3533;51.246;6.850;2023-02-15T15:20:00;2.27;;;2.17;;
6985;SDS011;3533;51.246;6.850;2023-02-15T15:22:27;2.90;;;2.13;;
6985;SDS011;3533;51.246;6.850;2023-02-15T15:24:54;2.43;;;2.23;;
6985;SDS011;3533;51.246;6.850;2023-02-15T15:32:47;2.83;;;2.70;;
6985;SDS011;3533;51.246;6.850;2023-02-15T15:35:34;2.10;;;2.00;;
6985;SDS011;3533;51.246;6.850;2023-02-15T15:41:16;2.20;;;2.10;;
6985;SDS011;3533;51.246;6.850;2023-02-15T15:46:39;2.27;;;2.17;;
6985;SDS011;3533;51.246;6.850;2023-02-15T15:49:23;2.50;;;2.30;;
6985;SDS011;3533;51.246;6.850;2023-02-15T15:51:53;2.60;;;2.50;;
6985;SDS011;3533;51.246;6.850;2023-02-15T15:54:23;2.60;;;2.43;;
6985;SDS011;3533;51.246;6.850;2023-02-15T15:56:52;2.80;;;2.60;;
6985;SDS011;3533;51.246;6.850;2023-02-15T15:59:26;2.00;;;1.90;;
6985;SDS011;3533;51.246;6.850;2023-02-15T16:01:56;2.03;;;1.93;;
6985;SDS011;3533;51.246;6.850;2023-02-15T16:04:31;2.30;;;2.20;;
6985;SDS011;3533;51.246;6.850;2023-02-15T16:07:13;2.13;;;2.03;;
6985;SDS011;3533;51.246;6.850;2023-02-15T16:09:39;2.00;;;1.90;;
6985;SDS011;3533;51.246;6.850;2023-02-15T16:12:04;2.20;;;2.00;;
6985;SDS011;3533;51.246;6.850;2023-02-15T16:14:42;2.20;;;2.10;;
6985;SDS011;3533;51.246;6.850;2023-02-15T16:17:17;2.37;;;2.27;;
6985;SDS011;3533;51.246;6.850;2023-02-15T16:19:47;2.40;;;2.30;;
6985;SDS011;3533;51.246;6.850;2023-02-15T16:22:18;2.27;;;2.17;;
6985;SDS011;3533;51.246;6.850;2023-02-15T16:27:42;2.00;;;1.90;;
6985;SDS011;3533;51.246;6.850;2023-02-15T16:30:30;2.20;;;2.10;;
6985;SDS011;3533;51.246;6.850;2023-02-15T16:33:07;2.00;;;1.90;;
6985;SDS011;3533;51.246;6.850;2023-02-15T16:35:54;2.50;;;2.40;;
6985;SDS011;3533;51.246;6.850;2023-02-15T16:41:11;2.50;;;2.30;;
6985;SDS011;3533;51.246;6.850;2023-02-15T16:43:38;1.90;;;1.80;;
6985;SDS011;3533;51.246;6.850;2023-02-15T16:46:10;2.13;;;2.00;;
6985;SDS011;3533;51.246;6.850;2023-02-15T16:48:41;2.50;;;2.40;;
6985;SDS011;3533;51.246;6.850;2023-02-15T16:51:10;2.23;;;2.13;;
6985;SDS011;3533;51.246;6.850;2023-02-15T16:53:48;2.20;;;2.10;;
6985;SDS011;3533;51.246;6.850;2023-02-15T16:56:15;2.10;;;2.00;;
6985;SDS011;3533;51.246;6.850;2023-02-15T16:58:43;2.00;;;1.90;;
6985;SDS011;3533;51.246;6.850;2023-02-15T17:01:11;3.10;;;2.97;;
6985;SDS011;3533;51.246;6.850;2023-02-15T17:03:39;2.43;;;2.33;;
6985;SDS011;3533;51.246;6.850;2023-02-15T17:06:18;3.40;;;2.30;;
6985;SDS011;3533;51.246;6.850;2023-02-15T17:08:50;5.83;;;2.27;;
6985;SDS011;3533;51.246;6.850;2023-02-15T17:11:20;2.27;;;2.07;;
6985;SDS011;3533;51.246;6.850;2023-02-15T17:16:47;2.60;;;2.40;;
6985;SDS011;3533;51.246;6.850;2023-02-15T17:22:04;3.10;;;2.70;;
6985;SDS011;3533;51.246;6.850;2023-02-15T17:27:28;4.57;;;2.93;;
6985;SDS011;3533;51.246;6.850;2023-02-15T17:30:03;2.53;;;2.30;;
6985;SDS011;3533;51.246;6.850;2023-02-15T17:32:38;2.40;;;2.20;;
6985;SDS011;3533;51.246;6.850;2023-02-15T17:35:25;2.43;;;2.23;;
6985;SDS011;3533;51.246;6.850;2023-02-15T17:38:06;2.67;;;2.57;;
6985;SDS011;3533;51.246;6.850;2023-02-15T17:40:45;2.23;;;2.13;;
6985;SDS011;3533;51.246;6.850;2023-02-15T17:43:10;3.10;;;2.73;;
6985;SDS011;3533;51.246;6.850;2023-02-15T17:45:39;2.60;;;2.40;;
6985;SDS011;3533;51.246;6.850;2023-02-15T17:48:09;2.40;;;2.30;;
6985;SDS011;3533;51.246;6.850;2023-02-15T17:50:45;2.70;;;2.50;;
6985;SDS011;3533;51.246;6.850;2023-02-15T17:53:10;2.53;;;2.40;;
6985;SDS011;3533;51.246;6.850;2023-02-15T17:55:37;2.30;;;2.20;;
6985;SDS011;3533;51.246;6.850;2023-02-15T17:58:07;2.53;;;2.30;;
6985;SDS011;3533;51.246;6.850;2023-02-15T18:00:44;2.53;;;2.43;;
6985;SDS011;3533;51.246;6.850;2023-02-15T18:03:37;10.13;;;3.30;;
6985;SDS011;3533;51.246;6.850;2023-02-15T18:06:24;4.03;;;3.10;;
6985;SDS011;3533;51.246;6.850;2023-02-15T18:09:13;6.50;;;3.30;;
6985;SDS011;3533;51.246;6.850;2023-02-15T18:11:58;4.03;;;2.87;;
6985;SDS011;3533;51.246;6.850;2023-02-15T18:14:24;7.80;;;2.80;;
6985;SDS011;3533;51.246;6.850;2023-02-15T18:16:49;3.63;;;3.33;;
6985;SDS011;3533;51.246;6.850;2023-02-15T18:19:22;7.83;;;3.47;;
6985;SDS011;3533;51.246;6.850;2023-02-15T18:21:50;5.97;;;2.80;;
6985;SDS011;3533;51.246;6.850;2023-02-15T18:24:22;4.43;;;3.20;;
6985;SDS011;3533;51.246;6.850;2023-02-15T18:26:50;5.20;;;2.90;;
6985;SDS011;3533;51.246;6.850;2023-02-15T18:29:17;3.93;;;2.90;;